createdAt,value
2017-07-03T00:00:28.363Z,21.28
2017-07-03T00:01:38.719Z,21.29
2017-07-03T00:02:48.927Z,21.31
2017-07-03T00:03:59.144Z,21.38
2017-07-03T00:05:09.358Z,21.4
2017-07-03T00:06:19.588Z,21.35
2017-07-03T00:07:29.848Z,21.46
2017-07-03T00:08:40.088Z,21.56
2017-07-03T00:09:50.203Z,21.52
2017-07-03T00:11:00.120Z,21.46
2017-07-03T00:12:10.354Z,21.43
2017-07-03T00:13:20.718Z,21.32
2017-07-03T00:14:30.349Z,21.37
2017-07-03T00:15:39.942Z,21.37
2017-07-03T00:16:49.864Z,21.43
2017-07-03T00:17:59.465Z,21.22
2017-07-03T00:19:09.513Z,21.24
2017-07-03T00:20:19.121Z,21.25
2017-07-03T00:21:29.028Z,21.29
2017-07-03T00:22:39.231Z,21.16
2017-07-03T00:23:49.124Z,21.22
2017-07-03T00:24:59.467Z,21.17
2017-07-03T00:26:09.379Z,21.09
2017-07-03T00:27:19.275Z,21.03
2017-07-03T00:28:28.872Z,21.09
2017-07-03T00:29:39.079Z,21.1
2017-07-03T00:30:49.032Z,20.99
2017-07-03T00:31:58.933Z,20.98
2017-07-03T00:33:08.850Z,20.91
2017-07-03T00:34:19.053Z,20.84
2017-07-03T00:35:28.954Z,20.79
2017-07-03T00:36:39.674Z,20.76
2017-07-03T00:37:49.589Z,20.7
2017-07-03T00:38:59.798Z,20.67
2017-07-03T00:40:09.396Z,20.69
2017-07-03T00:41:19.611Z,20.69
2017-07-03T00:42:29.817Z,20.7
2017-07-03T00:43:40.033Z,20.73
2017-07-03T00:44:50.297Z,20.7
2017-07-03T00:46:00.500Z,20.69
2017-07-03T00:47:10.706Z,20.76
2017-07-03T00:48:20.766Z,20.87
2017-07-03T00:49:30.972Z,20.92
2017-07-03T00:50:40.875Z,21.03
2017-07-03T00:51:50.787Z,21.04
2017-07-03T00:52:59.790Z,21.22
2017-07-03T00:54:09.995Z,21.35
2017-07-03T00:55:19.909Z,21.47
2017-07-03T00:56:30.110Z,21.54
2017-07-03T00:57:40.314Z,21.58
2017-07-03T00:58:50.208Z,21.65
2017-07-03T01:00:00.245Z,21.71
2017-07-03T01:01:09.837Z,21.79
2017-07-03T01:02:19.737Z,21.72
2017-07-03T01:03:29.947Z,21.79
2017-07-03T01:04:39.544Z,21.8
2017-07-03T01:05:49.603Z,21.74
2017-07-03T01:06:59.511Z,21.75
2017-07-03T01:08:09.411Z,21.96
2017-07-03T01:09:19.314Z,21.86
2017-07-03T01:10:29.217Z,21.86
2017-07-03T01:11:39.514Z,21.86
2017-07-03T01:12:49.725Z,21.82
2017-07-03T01:13:59.026Z,21.82
2017-07-03T01:15:08.930Z,21.77
2017-07-03T01:16:18.831Z,21.71
2017-07-03T01:17:29.087Z,21.68
2017-07-03T01:18:39.299Z,21.65
2017-07-03T01:19:49.203Z,21.67
2017-07-03T01:20:59.097Z,21.65
2017-07-03T01:22:08.696Z,21.71
2017-07-03T01:23:18.643Z,21.59
2017-07-03T01:24:28.847Z,21.67
2017-07-03T01:25:38.754Z,21.56
2017-07-03T01:26:48.961Z,21.52
2017-07-03T01:27:58.866Z,21.38
2017-07-03T01:29:08.155Z,21.34
2017-07-03T01:30:18.372Z,21.21
2017-07-03T01:31:28.291Z,21.25
2017-07-03T01:32:37.888Z,21.25
2017-07-03T01:33:48.098Z,21.24
2017-07-03T01:34:58.458Z,21.17
2017-07-03T01:36:07.749Z,21.12
2017-07-03T01:37:17.649Z,21.04
2017-07-03T01:38:27.562Z,21.01
2017-07-03T01:39:37.473Z,21.06
2017-07-03T01:40:47.170Z,21.03
2017-07-03T01:41:57.067Z,21.01
2017-07-03T01:43:07.274Z,21.09
2017-07-03T01:44:17.175Z,21.04
2017-07-03T01:45:26.471Z,21.06
2017-07-03T01:46:35.798Z,20.95
2017-07-03T01:47:46.008Z,21.01
2017-07-03T01:48:56.213Z,20.97
2017-07-03T01:50:06.423Z,20.99
2017-07-03T01:51:16.632Z,20.95
2017-07-03T01:52:26.289Z,20.85
2017-07-03T01:53:36.498Z,20.88
2017-07-03T01:54:46.709Z,20.82
2017-07-03T01:55:56.933Z,20.88
2017-07-03T01:57:06.836Z,20.89
2017-07-03T01:58:16.740Z,20.91
2017-07-03T01:59:26.959Z,20.88
2017-07-03T02:00:36.612Z,20.87
2017-07-03T02:01:46.825Z,20.7
2017-07-03T02:02:56.434Z,20.76
2017-07-03T02:04:06.331Z,20.69
2017-07-03T02:05:16.565Z,20.72
2017-07-03T02:06:26.470Z,20.7
2017-07-03T02:07:36.682Z,20.66
2017-07-03T02:08:46.895Z,20.67
2017-07-03T02:09:56.956Z,20.66
2017-07-03T02:11:06.845Z,20.61
2017-07-03T02:12:16.443Z,20.66
2017-07-03T02:13:26.644Z,20.58
2017-07-03T02:14:36.555Z,20.58
2017-07-03T02:15:47.057Z,20.61
2017-07-03T02:16:56.342Z,20.69
2017-07-03T02:18:06.261Z,20.7
2017-07-03T02:19:16.189Z,20.66
2017-07-03T02:20:26.412Z,20.67
2017-07-03T02:21:36.764Z,20.67
2017-07-03T02:22:46.988Z,20.69
2017-07-03T02:23:56.301Z,20.8
2017-07-03T02:25:06.204Z,20.7
2017-07-03T02:26:15.494Z,20.72
2017-07-03T02:27:25.546Z,20.62
2017-07-03T02:28:35.752Z,20.76
2017-07-03T02:29:45.963Z,20.69
2017-07-03T02:30:55.858Z,20.64
2017-07-03T02:32:06.057Z,20.69
2017-07-03T02:33:15.948Z,20.67
2017-07-03T02:34:26.157Z,20.66
2017-07-03T02:35:35.757Z,20.69
2017-07-03T02:36:45.966Z,20.7
2017-07-03T02:37:55.286Z,20.69
2017-07-03T02:39:04.568Z,20.64
2017-07-03T02:40:14.779Z,20.61
2017-07-03T02:41:24.673Z,20.47
2017-07-03T02:42:34.619Z,20.51
2017-07-03T02:43:44.517Z,20.42
2017-07-03T02:44:53.603Z,20.52
2017-07-03T02:46:03.502Z,20.54
2017-07-03T02:47:13.399Z,20.43
2017-07-03T02:48:22.994Z,20.42
2017-07-03T02:49:33.226Z,20.43
2017-07-03T02:50:43.579Z,20.36
2017-07-03T02:51:53.473Z,20.29
2017-07-03T02:53:03.673Z,20.29
2017-07-03T02:54:13.875Z,20.26
2017-07-03T02:55:23.471Z,20.16
2017-07-03T02:56:32.983Z,20.13
2017-07-03T02:57:42.901Z,20.08
2017-07-03T02:58:52.802Z,19.99
2017-07-03T03:00:02.701Z,19.94
2017-07-03T03:01:12.602Z,19.96
2017-07-03T03:02:22.344Z,19.95
2017-07-03T03:03:32.552Z,20.03
2017-07-03T03:04:42.457Z,20.1
2017-07-03T03:05:52.363Z,20.17
2017-07-03T03:07:02.562Z,20.18
2017-07-03T03:08:12.607Z,20.1
2017-07-03T03:09:22.518Z,20.16
2017-07-03T03:10:32.417Z,20.01
2017-07-03T03:11:42.647Z,20.03
2017-07-03T03:12:52.555Z,19.99
2017-07-03T03:14:02.514Z,19.94
2017-07-03T03:15:12.773Z,19.95
2017-07-03T03:16:22.982Z,19.98
2017-07-03T03:17:33.181Z,19.95
2017-07-03T03:18:43.395Z,19.96
2017-07-03T03:19:52.990Z,19.92
2017-07-03T03:21:02.590Z,19.81
2017-07-03T03:22:12.496Z,19.73
2017-07-03T03:23:22.387Z,19.74
2017-07-03T03:24:32.611Z,19.8
2017-07-03T03:25:42.367Z,19.78
2017-07-03T03:26:51.958Z,19.78
2017-07-03T03:28:02.168Z,19.78
2017-07-03T03:29:12.069Z,19.78
2017-07-03T03:30:21.664Z,19.71
2017-07-03T03:31:31.002Z,19.69
2017-07-03T03:32:40.903Z,19.74
2017-07-03T03:36:10.594Z,19.95
2017-07-03T03:37:20.491Z,20.06
2017-07-03T03:38:30.454Z,20.2
2017-07-03T03:39:40.680Z,20.21
2017-07-03T03:40:50.583Z,20.24
2017-07-03T03:41:59.874Z,20.2
2017-07-03T03:43:10.125Z,20.21
2017-07-03T03:44:20.022Z,20.31
2017-07-03T03:45:29.616Z,20.39
2017-07-03T03:46:39.510Z,20.39
2017-07-03T03:47:49.719Z,20.38
2017-07-03T03:49:00.075Z,20.33
2017-07-03T03:50:10.279Z,20.39
2017-07-03T03:51:20.487Z,20.39
2017-07-03T03:52:30.074Z,20.47
2017-07-03T03:53:40.283Z,20.39
2017-07-03T03:54:50.300Z,20.54
2017-07-03T03:56:00.504Z,20.48
2017-07-03T03:57:10.460Z,20.52
2017-07-03T03:58:20.351Z,20.58
2017-07-03T03:59:30.603Z,20.66
2017-07-03T04:00:40.650Z,20.69
2017-07-03T04:01:50.250Z,20.66
2017-07-03T04:03:00.146Z,20.69
2017-07-03T04:04:10.038Z,20.8
2017-07-03T04:05:20.234Z,20.89
2017-07-03T04:06:30.548Z,20.87
2017-07-03T04:07:40.190Z,20.84
2017-07-03T04:08:50.088Z,20.8
2017-07-03T04:10:00.335Z,20.67
2017-07-03T04:11:10.553Z,20.69
2017-07-03T04:12:20.452Z,20.66
2017-07-03T04:13:30.652Z,20.67
2017-07-03T04:14:40.852Z,20.8
2017-07-03T04:15:51.060Z,20.88
2017-07-03T04:17:00.955Z,20.89
2017-07-03T04:18:10.567Z,20.94
2017-07-03T04:19:20.472Z,20.91
2017-07-03T04:20:30.741Z,20.91
2017-07-03T04:21:40.663Z,20.89
2017-07-03T04:22:50.262Z,20.79
2017-07-03T04:24:00.510Z,20.69
2017-07-03T04:25:10.425Z,20.48
2017-07-03T04:26:20.633Z,20.42
2017-07-03T04:27:30.532Z,20.35
2017-07-03T04:28:40.461Z,20.39
2017-07-03T04:29:50.430Z,20.41
2017-07-03T04:31:00.027Z,20.36
2017-07-03T04:32:10.224Z,20.48
2017-07-03T04:33:20.454Z,20.54
2017-07-03T04:34:30.059Z,20.55
2017-07-03T04:35:39.916Z,20.7
2017-07-03T04:36:49.517Z,20.67
2017-07-03T04:37:59.728Z,20.74
2017-07-03T04:39:09.937Z,20.77
2017-07-03T04:40:19.530Z,20.79
2017-07-03T04:41:29.733Z,20.88
2017-07-03T04:42:39.030Z,20.82
2017-07-03T04:43:48.621Z,20.94
2017-07-03T04:44:58.527Z,20.92
2017-07-03T04:46:08.423Z,20.97
2017-07-03T04:47:18.636Z,20.99
2017-07-03T04:48:28.547Z,21.09
2017-07-03T04:49:38.757Z,21.13
2017-07-03T04:50:48.655Z,21.16
2017-07-03T04:51:58.868Z,21.31
2017-07-03T04:53:09.121Z,21.29
2017-07-03T04:54:19.335Z,21.4
2017-07-03T04:55:29.253Z,21.44
2017-07-03T04:56:39.466Z,21.5
2017-07-03T04:57:49.373Z,21.64
2017-07-03T04:58:59.575Z,21.72
2017-07-03T05:00:09.785Z,21.86
2017-07-03T05:01:19.071Z,21.92
2017-07-03T05:02:29.271Z,21.91
2017-07-03T05:03:39.480Z,22
2017-07-03T05:04:49.133Z,22.07
2017-07-03T05:05:59.338Z,22.22
2017-07-03T05:07:09.546Z,22.21
2017-07-03T05:08:19.445Z,22.21
2017-07-03T05:09:29.128Z,22.31
2017-07-03T05:10:39.377Z,22.37
2017-07-03T05:11:49.582Z,22.49
2017-07-03T05:12:59.188Z,22.55
2017-07-03T05:14:09.483Z,22.51
2017-07-03T05:15:19.105Z,22.6
2017-07-03T05:16:28.843Z,22.73
2017-07-03T05:17:39.064Z,22.73
2017-07-03T05:18:48.975Z,22.79
2017-07-03T05:19:59.181Z,22.86
2017-07-03T05:21:08.777Z,23.01
2017-07-03T05:22:19.278Z,23.02
2017-07-03T05:23:29.479Z,23.12
2017-07-03T05:24:39.677Z,23.15
2017-07-03T05:25:49.581Z,23.31
2017-07-03T05:26:59.795Z,23.43
2017-07-03T05:28:09.731Z,23.61
2017-07-03T05:29:19.939Z,23.73
2017-07-03T05:30:29.535Z,23.83
2017-07-03T05:31:39.754Z,23.98
2017-07-03T05:32:49.656Z,24.09
2017-07-03T05:33:59.634Z,24.31
2017-07-03T05:35:09.538Z,24.32
2017-07-03T05:36:19.438Z,24.53
2017-07-03T05:37:29.349Z,24.58
2017-07-03T05:38:39.562Z,24.68
2017-07-03T05:39:49.881Z,24.83
2017-07-03T05:40:59.791Z,24.88
2017-07-03T05:42:10.010Z,24.98
2017-07-03T05:43:19.913Z,25.21
2017-07-03T05:44:29.825Z,25.27
2017-07-03T05:45:39.520Z,25.33
2017-07-03T05:46:49.420Z,25.39
2017-07-03T05:47:59.337Z,25.47
2017-07-03T05:49:08.931Z,25.47
2017-07-03T05:50:18.830Z,25.64
2017-07-03T05:51:28.121Z,25.8
2017-07-03T05:52:38.333Z,25.85
2017-07-03T05:53:48.248Z,25.92
2017-07-03T05:54:57.847Z,26.02
2017-07-03T05:56:07.754Z,25.95
2017-07-03T05:57:18.136Z,25.98
2017-07-03T05:58:27.435Z,26.13
2017-07-03T05:59:37.344Z,26.1
2017-07-03T06:00:47.556Z,26.05
2017-07-03T06:01:57.473Z,26.12
2017-07-03T06:03:07.477Z,26.1
2017-07-03T06:04:17.382Z,26.25
2017-07-03T06:05:27.598Z,26.29
2017-07-03T06:06:37.512Z,26.26
2017-07-03T06:07:47.722Z,26.26
2017-07-03T06:08:57.940Z,26.37
2017-07-03T06:10:07.224Z,26.43
2017-07-03T06:11:17.438Z,26.47
2017-07-03T06:12:26.737Z,26.45
2017-07-03T06:13:36.649Z,26.51
2017-07-03T06:14:46.871Z,26.47
2017-07-03T06:15:57.083Z,26.57
2017-07-03T06:17:07.311Z,26.6
2017-07-03T06:18:17.215Z,26.77
2017-07-03T06:19:26.807Z,26.84
2017-07-03T06:20:36.892Z,26.85
2017-07-03T06:21:46.808Z,26.92
2017-07-03T06:22:56.728Z,27.09
2017-07-03T06:24:06.637Z,27.14
2017-07-03T06:25:16.545Z,27.28
2017-07-03T06:26:26.299Z,27.19
2017-07-03T06:27:35.892Z,27.31
2017-07-03T06:28:45.499Z,27.4
2017-07-03T06:29:55.732Z,27.57
2017-07-03T06:31:05.649Z,27.54
2017-07-03T06:32:15.857Z,27.67
2017-07-03T06:33:25.156Z,27.82
2017-07-03T06:34:35.070Z,27.85
2017-07-03T06:35:44.993Z,27.84
2017-07-03T06:36:54.901Z,27.79
2017-07-03T06:38:05.020Z,27.94
2017-07-03T06:39:15.238Z,27.92
2017-07-03T06:40:24.875Z,27.99
2017-07-03T06:41:34.485Z,28
2017-07-03T06:42:44.705Z,27.94
2017-07-03T06:43:54.786Z,28
2017-07-03T06:45:04.699Z,27.99
2017-07-03T06:46:14.917Z,28.06
2017-07-03T06:47:24.825Z,28.07
2017-07-03T06:48:34.748Z,28.15
2017-07-03T06:49:44.656Z,28.06
2017-07-03T06:50:54.873Z,28.04
2017-07-03T06:52:03.873Z,28.12
2017-07-03T06:53:13.810Z,28.17
2017-07-03T06:54:23.733Z,28.19
2017-07-03T06:55:33.707Z,28.29
2017-07-03T06:56:43.630Z,28.25
2017-07-03T06:57:53.858Z,28.24
2017-07-03T06:59:04.113Z,28.18
2017-07-03T07:00:14.030Z,28.18
2017-07-03T07:01:23.637Z,28.09
2017-07-03T07:02:32.629Z,28.12
2017-07-03T07:03:42.547Z,28.12
2017-07-03T07:04:52.758Z,28.19
2017-07-03T07:06:02.678Z,28.29
2017-07-03T07:07:12.648Z,28.36
2017-07-03T07:08:22.549Z,28.49
2017-07-03T07:09:32.772Z,28.51
2017-07-03T07:10:42.676Z,28.68
2017-07-03T07:11:51.990Z,28.78
2017-07-03T07:13:02.016Z,29.05
2017-07-03T07:14:11.923Z,29.09
2017-07-03T07:15:21.561Z,29.26
2017-07-03T07:16:31.166Z,29.45
2017-07-03T07:17:41.119Z,29.64
2017-07-03T07:18:51.180Z,29.76
2017-07-03T07:20:00.779Z,30.02
2017-07-03T07:21:10.700Z,30.26
2017-07-03T07:22:19.698Z,30.51
2017-07-03T07:23:29.925Z,30.77
2017-07-03T07:24:39.587Z,30.98
2017-07-03T07:25:49.802Z,31.16
2017-07-03T07:26:59.717Z,31.39
2017-07-03T07:28:09.627Z,31.65
2017-07-03T07:29:19.847Z,31.86
2017-07-03T07:30:30.213Z,32.04
2017-07-03T07:31:40.451Z,32.28
2017-07-03T07:32:50.390Z,32.59
2017-07-03T07:33:59.992Z,32.7
2017-07-03T07:35:09.917Z,32.99
2017-07-03T07:36:19.990Z,33.19
2017-07-03T07:37:29.915Z,33.45
2017-07-03T07:38:39.834Z,33.68
2017-07-03T07:39:50.059Z,33.88
2017-07-03T07:41:00.285Z,34.09
2017-07-03T07:42:10.650Z,34.3
2017-07-03T07:43:19.952Z,34.52
2017-07-03T07:44:29.873Z,34.7
2017-07-03T07:45:40.194Z,34.77
2017-07-03T07:46:49.505Z,35.04
2017-07-03T07:47:59.171Z,35.15
2017-07-03T07:49:09.088Z,35.38
2017-07-03T07:50:18.696Z,35.44
2017-07-03T07:51:28.611Z,35.6
2017-07-03T07:52:38.536Z,35.77
2017-07-03T07:53:48.605Z,35.92
2017-07-03T07:54:58.519Z,36.03
2017-07-03T07:56:08.745Z,36.15
2017-07-03T07:57:18.657Z,36.29
2017-07-03T07:58:28.880Z,36.34
2017-07-03T07:59:38.943Z,36.49
2017-07-03T08:00:48.870Z,36.65
2017-07-03T08:01:58.781Z,36.72
2017-07-03T08:03:09.011Z,36.8
2017-07-03T08:04:18.620Z,36.94
2017-07-03T08:05:28.528Z,37
2017-07-03T08:06:38.770Z,36.99
2017-07-03T08:07:48.094Z,37.12
2017-07-03T08:08:57.718Z,37.21
2017-07-03T08:10:07.628Z,37.32
2017-07-03T08:11:17.254Z,37.32
2017-07-03T08:12:27.160Z,37.39
2017-07-03T08:13:37.098Z,37.37
2017-07-03T08:14:46.707Z,37.21
2017-07-03T08:15:56.937Z,37.12
2017-07-03T08:17:06.685Z,37.1
2017-07-03T08:18:16.589Z,37.29
2017-07-03T08:19:26.513Z,37.37
2017-07-03T08:20:35.826Z,37.41
2017-07-03T08:21:46.043Z,37.46
2017-07-03T08:22:55.708Z,37.7
2017-07-03T08:24:05.400Z,37.62
2017-07-03T08:25:15.324Z,37.72
2017-07-03T08:26:24.622Z,37.55
2017-07-03T08:27:34.557Z,37.63
2017-07-03T08:28:44.523Z,37.63
2017-07-03T08:29:53.833Z,37.75
2017-07-03T08:31:03.748Z,37.86
2017-07-03T08:32:13.659Z,37.93
2017-07-03T08:33:22.654Z,38.06
2017-07-03T08:34:32.632Z,38.09
2017-07-03T08:35:42.858Z,38.18
2017-07-03T08:36:52.778Z,38.25
2017-07-03T08:38:02.392Z,38.28
2017-07-03T08:39:12.703Z,38.35
2017-07-03T08:40:22.643Z,38.38
2017-07-03T08:41:32.860Z,38.35
2017-07-03T08:42:43.081Z,38.13
2017-07-03T08:43:52.993Z,37.86
2017-07-03T08:45:03.206Z,37.51
2017-07-03T08:46:13.124Z,37.22
2017-07-03T08:47:22.742Z,36.73
2017-07-03T08:48:32.653Z,36.29
2017-07-03T08:49:42.883Z,36.01
2017-07-03T08:50:53.099Z,35.65
2017-07-03T08:52:03.615Z,35.26
2017-07-03T08:53:13.843Z,34.85
2017-07-03T08:54:24.086Z,34.53
2017-07-03T08:55:34.321Z,34.28
2017-07-03T08:56:44.232Z,34
2017-07-03T08:57:53.938Z,33.72
2017-07-03T08:59:03.860Z,33.45
2017-07-03T09:00:14.092Z,33.19
2017-07-03T09:01:24.010Z,32.96
2017-07-03T09:02:33.623Z,32.67
2017-07-03T09:03:42.920Z,32.47
2017-07-03T09:04:52.834Z,32.19
2017-07-03T09:06:02.744Z,31.99
2017-07-03T09:07:12.967Z,31.8
2017-07-03T09:08:22.870Z,31.54
2017-07-03T09:09:33.084Z,31.26
2017-07-03T09:10:42.997Z,31.16
2017-07-03T09:11:52.928Z,30.98
2017-07-03T09:13:02.844Z,30.79
2017-07-03T09:14:12.772Z,30.64
2017-07-03T09:15:22.395Z,30.37
2017-07-03T09:16:32.634Z,30.23
2017-07-03T09:17:42.559Z,30.11
2017-07-03T09:18:51.865Z,29.9
2017-07-03T09:20:01.774Z,29.82
2017-07-03T09:21:11.524Z,29.67
2017-07-03T09:22:21.735Z,29.52
2017-07-03T09:23:31.646Z,29.42
2017-07-03T09:24:41.864Z,29.24
2017-07-03T09:25:51.812Z,29.09
2017-07-03T09:27:01.515Z,29
2017-07-03T09:28:11.428Z,28.86
2017-07-03T09:29:21.659Z,28.77
2017-07-03T09:30:31.935Z,28.67
2017-07-03T09:31:40.947Z,28.56
2017-07-03T09:32:51.009Z,28.52
2017-07-03T09:34:00.928Z,28.3
2017-07-03T09:35:10.535Z,28.4
2017-07-03T09:36:20.145Z,28.21
2017-07-03T09:37:30.092Z,28.12
2017-07-03T09:38:40.388Z,28
2017-07-03T09:39:50.613Z,27.97
2017-07-03T09:41:00.523Z,27.93
2017-07-03T09:42:10.132Z,27.93
2017-07-03T09:43:20.061Z,27.82
2017-07-03T09:44:29.155Z,27.72
2017-07-03T09:45:38.762Z,27.72
2017-07-03T09:46:48.670Z,27.59
2017-07-03T09:47:58.599Z,27.62
2017-07-03T09:49:08.811Z,27.57
2017-07-03T09:50:19.194Z,27.47
2017-07-03T09:51:29.109Z,27.4
2017-07-03T09:52:38.712Z,27.36
2017-07-03T09:53:48.329Z,27.32
2017-07-03T09:54:58.558Z,27.27
2017-07-03T09:56:08.478Z,27.19
2017-07-03T09:57:18.085Z,27.18
2017-07-03T09:58:28.314Z,27.22
2017-07-03T09:59:37.615Z,27.25
2017-07-03T10:00:47.831Z,27.18
2017-07-03T10:01:58.055Z,27.06
2017-07-03T10:03:08.273Z,27.07
2017-07-03T10:04:18.238Z,27
2017-07-03T10:05:28.157Z,27.03
2017-07-03T10:06:37.765Z,27.02
2017-07-03T10:07:48.141Z,26.97
2017-07-03T10:08:58.360Z,26.94
2017-07-03T10:10:08.593Z,26.81
2017-07-03T10:11:18.522Z,26.85
2017-07-03T10:12:28.128Z,26.8
2017-07-03T10:13:38.033Z,26.82
2017-07-03T10:14:47.948Z,26.81
2017-07-03T10:15:57.554Z,26.72
2017-07-03T10:17:07.768Z,26.73
2017-07-03T10:18:17.380Z,26.69
2017-07-03T10:19:27.599Z,26.8
2017-07-03T10:20:37.512Z,26.6
2017-07-03T10:21:47.415Z,26.66
2017-07-03T10:22:57.014Z,26.69
2017-07-03T10:24:07.230Z,26.58
2017-07-03T10:25:17.504Z,26.55
2017-07-03T10:26:27.412Z,26.55
2017-07-03T10:27:37.019Z,26.47
2017-07-03T10:28:46.019Z,26.47
2017-07-03T10:29:56.240Z,26.47
2017-07-03T10:31:06.513Z,26.54
2017-07-03T10:32:16.431Z,26.52
2017-07-03T10:33:26.346Z,26.47
2017-07-03T10:34:36.565Z,26.47
2017-07-03T10:35:46.170Z,26.44
2017-07-03T10:36:56.534Z,26.43
2017-07-03T10:38:06.761Z,26.44
2017-07-03T10:39:16.060Z,26.44
2017-07-03T10:40:26.279Z,26.36
2017-07-03T10:41:36.495Z,26.45
2017-07-03T10:42:46.726Z,26.35
2017-07-03T10:43:56.357Z,26.33
2017-07-03T10:45:06.269Z,26.33
2017-07-03T10:46:16.495Z,26.29
2017-07-03T10:47:26.400Z,26.29
2017-07-03T10:48:36.772Z,26.3
2017-07-03T10:49:46.375Z,26.33
2017-07-03T10:50:55.973Z,26.32
2017-07-03T10:52:05.886Z,26.37
2017-07-03T10:53:15.494Z,26.37
2017-07-03T10:54:25.862Z,26.3
2017-07-03T10:55:35.765Z,26.32
2017-07-03T10:56:45.391Z,26.28
2017-07-03T10:57:54.683Z,26.3
2017-07-03T10:59:04.609Z,26.32
2017-07-03T11:00:14.849Z,26.29
2017-07-03T11:01:24.780Z,26.33
2017-07-03T11:02:34.706Z,26.33
2017-07-03T11:03:44.669Z,26.25
2017-07-03T11:04:54.594Z,26.3
2017-07-03T11:06:03.943Z,26.3
2017-07-03T11:07:13.566Z,26.29
2017-07-03T11:08:23.484Z,26.29
2017-07-03T11:09:32.771Z,26.29
2017-07-03T11:10:42.371Z,26.33
2017-07-03T11:11:52.350Z,26.33
2017-07-03T11:13:02.291Z,26.26
2017-07-03T11:14:12.209Z,26.3
2017-07-03T11:15:22.129Z,26.2
2017-07-03T11:16:31.748Z,26.23
2017-07-03T11:17:41.504Z,26.28
2017-07-03T11:18:51.122Z,26.25
2017-07-03T11:20:01.357Z,26.25
2017-07-03T11:21:11.577Z,26.17
2017-07-03T11:22:21.173Z,26.1
2017-07-03T11:23:31.267Z,26.09
2017-07-03T11:24:40.589Z,26.17
2017-07-03T11:25:50.545Z,26.1
2017-07-03T11:27:00.475Z,26.12
2017-07-03T11:28:10.396Z,26.1
2017-07-03T11:29:20.349Z,26.18
2017-07-03T11:30:29.944Z,26.17
2017-07-03T11:31:39.847Z,26.1
2017-07-03T11:32:49.755Z,26.09
2017-07-03T11:34:00.024Z,26.1
2017-07-03T11:35:09.796Z,26.01
2017-07-03T11:36:19.715Z,25.98
2017-07-03T11:37:29.934Z,26.02
2017-07-03T11:38:39.253Z,25.97
2017-07-03T11:39:48.879Z,25.98
2017-07-03T11:40:58.955Z,25.99
2017-07-03T11:42:08.565Z,25.97
2017-07-03T11:43:18.232Z,25.97
2017-07-03T11:44:27.528Z,25.95
2017-07-03T11:45:38.494Z,25.97
2017-07-03T11:46:48.709Z,26.06
2017-07-03T11:47:58.329Z,26.02
2017-07-03T11:49:08.585Z,25.98
2017-07-03T11:50:18.513Z,25.92
2017-07-03T11:51:28.466Z,26.01
2017-07-03T11:52:38.224Z,25.97
2017-07-03T11:53:47.847Z,26.06
2017-07-03T11:54:57.448Z,25.98
2017-07-03T11:56:06.740Z,26.06
2017-07-03T11:57:16.666Z,25.97
2017-07-03T11:58:26.729Z,25.97
2017-07-03T11:59:35.729Z,26.01
2017-07-03T12:00:45.955Z,26.01
2017-07-03T12:01:54.959Z,25.94
2017-07-03T12:03:04.931Z,25.92
2017-07-03T12:04:14.717Z,26.01
2017-07-03T12:05:24.950Z,26.06
2017-07-03T12:06:34.565Z,26.06
2017-07-03T12:07:43.869Z,25.91
2017-07-03T12:08:53.842Z,25.99
2017-07-03T12:10:04.204Z,26.01
2017-07-03T12:11:14.425Z,25.95
2017-07-03T12:12:24.656Z,25.95
2017-07-03T12:13:34.571Z,26.07
2017-07-03T12:14:44.481Z,25.95
2017-07-03T12:15:54.858Z,25.92
2017-07-03T12:17:04.772Z,25.98
2017-07-03T12:18:14.996Z,26.02
2017-07-03T12:19:25.213Z,26.09
2017-07-03T12:20:34.841Z,26.07
2017-07-03T12:21:44.542Z,26.01
2017-07-03T12:22:54.545Z,26.09
2017-07-03T12:24:04.843Z,25.95
2017-07-03T12:25:14.771Z,25.98
2017-07-03T12:26:24.679Z,25.99
2017-07-03T12:27:34.643Z,26.01
2017-07-03T12:28:44.864Z,25.95
2017-07-03T12:29:54.791Z,26.05
2017-07-03T12:31:04.691Z,25.94
2017-07-03T12:32:14.599Z,25.99
2017-07-03T12:33:24.301Z,26.02
2017-07-03T12:34:33.904Z,26.02
2017-07-03T12:35:43.831Z,26.07
2017-07-03T12:36:53.739Z,26.09
2017-07-03T12:38:03.361Z,26.05
2017-07-03T12:39:13.124Z,26.15
2017-07-03T12:40:23.360Z,26.1
2017-07-03T12:41:32.973Z,26.12
2017-07-03T12:42:42.898Z,26.13
2017-07-03T12:43:52.809Z,26.17
2017-07-03T12:45:02.426Z,26.18
2017-07-03T12:46:12.360Z,26.2
2017-07-03T12:47:22.316Z,26.2
2017-07-03T12:48:32.533Z,26.28
2017-07-03T12:49:42.452Z,26.21
2017-07-03T12:50:52.524Z,26.2
2017-07-03T12:52:02.434Z,26.2
2017-07-03T12:53:12.353Z,26.28
2017-07-03T12:54:21.957Z,26.25
2017-07-03T12:55:31.561Z,26.21
2017-07-03T12:56:41.775Z,26.28
2017-07-03T12:57:51.088Z,26.25
2017-07-03T12:59:01.043Z,26.2
2017-07-03T13:00:10.985Z,26.3
2017-07-03T13:01:20.592Z,26.29
2017-07-03T13:02:30.797Z,26.21
2017-07-03T13:03:40.703Z,26.21
2017-07-03T13:04:50.625Z,26.26
2017-07-03T13:06:00.840Z,26.2
2017-07-03T13:07:10.459Z,26.17
2017-07-03T13:08:20.886Z,26.26
2017-07-03T13:09:30.833Z,26.23
2017-07-03T13:10:40.450Z,26.23
2017-07-03T13:11:49.752Z,26.25
2017-07-03T13:12:59.670Z,26.2
2017-07-03T13:14:09.389Z,26.15
2017-07-03T13:15:19.054Z,26.09
2017-07-03T13:16:28.988Z,26.09
2017-07-03T13:17:39.212Z,26.17
2017-07-03T13:18:49.439Z,26.17
2017-07-03T13:19:59.530Z,26.13
2017-07-03T13:21:09.482Z,26.1
2017-07-03T13:22:19.696Z,26.12
2017-07-03T13:23:29.604Z,26.07
2017-07-03T13:24:39.854Z,26.13
2017-07-03T13:25:50.084Z,26.1
2017-07-03T13:26:59.679Z,26.1
2017-07-03T13:28:09.590Z,26.13
2017-07-03T13:29:19.810Z,26.15
2017-07-03T13:30:29.721Z,26.1
2017-07-03T13:31:40.271Z,26.09
2017-07-03T13:32:50.495Z,25.97
2017-07-03T13:34:00.725Z,26.05
2017-07-03T13:35:10.942Z,25.99
2017-07-03T13:36:21.213Z,25.99
2017-07-03T13:37:30.927Z,26.06
2017-07-03T13:38:40.857Z,25.99
2017-07-03T13:39:50.775Z,26.02
2017-07-03T13:41:00.998Z,25.98
2017-07-03T13:42:10.601Z,25.97
2017-07-03T13:43:20.360Z,26.01
2017-07-03T13:44:29.982Z,26.06
2017-07-03T13:45:40.213Z,25.98
2017-07-03T13:46:49.852Z,26.05
2017-07-03T13:47:59.452Z,26.05
2017-07-03T13:49:09.685Z,26.09
2017-07-03T13:50:19.599Z,25.99
2017-07-03T13:51:29.203Z,26.01
2017-07-03T13:52:39.111Z,26.1
2017-07-03T13:53:49.027Z,26.12
2017-07-03T13:54:59.405Z,26.12
2017-07-03T13:56:09.010Z,26.09
2017-07-03T13:57:18.946Z,25.98
2017-07-03T13:58:28.953Z,26.02
2017-07-03T13:59:38.867Z,26.12
2017-07-03T14:00:47.875Z,26.09
2017-07-03T14:01:57.784Z,26.12
2017-07-03T14:03:07.693Z,26.12
2017-07-03T14:04:17.322Z,26.12
2017-07-03T14:05:27.552Z,26.1
2017-07-03T14:06:37.784Z,26.06
2017-07-03T14:07:48.009Z,26.09
2017-07-03T14:08:58.249Z,26.1
2017-07-03T14:10:08.171Z,26.1
2017-07-03T14:11:18.409Z,26.13
2017-07-03T14:12:28.323Z,26.1
2017-07-03T14:13:38.546Z,26.06
2017-07-03T14:14:48.530Z,26.07
2017-07-03T14:15:58.438Z,26.12
2017-07-03T14:17:08.663Z,26.13
2017-07-03T14:18:18.881Z,26.05
2017-07-03T14:19:28.787Z,26.1
2017-07-03T14:20:38.704Z,26.13
2017-07-03T14:21:48.631Z,26.07
2017-07-03T14:22:58.229Z,26.15
2017-07-03T14:24:08.440Z,26.1
2017-07-03T14:25:17.733Z,26.1
2017-07-03T14:26:27.640Z,26.1
2017-07-03T14:27:37.870Z,26.15
2017-07-03T14:28:47.792Z,26.12
2017-07-03T14:29:57.729Z,26.12
2017-07-03T14:31:07.948Z,26.13
2017-07-03T14:32:17.886Z,26.06
2017-07-03T14:33:27.524Z,26.09
2017-07-03T14:34:37.434Z,26.17
2017-07-03T14:35:47.353Z,26.09
2017-07-03T14:36:57.273Z,26.1
2017-07-03T14:38:06.889Z,26.09
2017-07-03T14:39:16.192Z,26.01
2017-07-03T14:40:24.886Z,26.12
2017-07-03T14:41:34.346Z,26.1
2017-07-03T14:42:43.960Z,26.12
2017-07-03T14:43:53.885Z,26.12
2017-07-03T14:45:03.800Z,26.12
2017-07-03T14:46:14.031Z,26.09
2017-07-03T14:47:24.294Z,26.1
2017-07-03T14:48:34.214Z,26.13
2017-07-03T14:49:44.136Z,26.2
2017-07-03T14:50:54.051Z,26.28
2017-07-03T14:52:04.276Z,26.17
2017-07-03T14:53:14.556Z,26.06
2017-07-03T14:54:24.774Z,26.1
2017-07-03T14:55:34.994Z,26.13
2017-07-03T14:56:44.913Z,26.02
2017-07-03T14:57:55.133Z,26.15
2017-07-03T14:59:05.381Z,26.12
2017-07-03T15:00:15.310Z,26.1
2017-07-03T15:01:25.236Z,26.09
2017-07-03T15:02:35.164Z,26.1
2017-07-03T15:03:44.474Z,26.12
2017-07-03T15:04:54.845Z,26.1
2017-07-03T15:06:04.159Z,26.1
2017-07-03T15:07:14.384Z,26.07